createdAt,value
2023-10-20T00:00:39.377Z,14.34
2023-10-20T00:03:28.559Z,14.32
2023-10-20T00:05:58.069Z,14.32
2023-10-20T00:08:26.674Z,14.28
2023-10-20T00:10:58.864Z,14.24
2023-10-20T00:13:27.382Z,14.20
2023-10-20T00:15:55.813Z,14.15
2023-10-20T00:18:24.908Z,14.12
2023-10-20T00:20:53.646Z,14.07
2023-10-20T00:23:22.190Z,14.03
2023-10-20T00:25:50.909Z,13.98
2023-10-20T00:28:19.498Z,13.94
2023-10-20T00:30:47.983Z,13.89
2023-10-20T00:33:17.270Z,13.82
2023-10-20T00:35:45.776Z,13.76
2023-10-20T00:38:14.180Z,13.70
2023-10-20T00:40:50.400Z,13.69
2023-10-20T00:43:19.692Z,13.67
2023-10-20T00:45:49.332Z,13.63
2023-10-20T00:48:18.004Z,13.60
2023-10-20T00:50:47.296Z,13.58
2023-10-20T00:53:16.203Z,13.54
2023-10-20T00:55:45.179Z,13.51
2023-10-20T00:58:13.574Z,13.49
2023-10-20T01:00:42.442Z,13.47
2023-10-20T01:03:12.337Z,13.44
2023-10-20T01:05:41.322Z,13.43
2023-10-20T01:08:10.259Z,13.40
2023-10-20T01:10:39.024Z,13.38
2023-10-20T01:13:07.813Z,13.39
2023-10-20T01:15:38.471Z,13.39
2023-10-20T01:18:09.121Z,13.40
2023-10-20T01:20:39.586Z,13.44
2023-10-20T01:23:08.759Z,13.43
2023-10-20T01:25:37.690Z,13.43
2023-10-20T01:28:06.793Z,13.41
2023-10-20T01:30:35.289Z,13.39
2023-10-20T01:33:04.153Z,13.40
2023-10-20T01:35:32.812Z,13.39
2023-10-20T01:38:02.383Z,13.40
2023-10-20T01:40:30.939Z,13.40
2023-10-20T01:42:59.516Z,13.42
2023-10-20T01:45:28.303Z,13.41
2023-10-20T01:47:57.181Z,13.37
2023-10-20T01:50:25.944Z,13.36
2023-10-20T01:52:56.106Z,13.31
2023-10-20T01:55:24.963Z,13.29
2023-10-20T01:57:53.779Z,13.24
2023-10-20T02:00:23.799Z,13.26
2023-10-20T02:02:52.416Z,13.22
2023-10-20T02:05:21.430Z,13.18
2023-10-20T02:07:50.970Z,13.16
2023-10-20T02:10:19.448Z,13.13
2023-10-20T02:12:48.349Z,13.10
2023-10-20T02:15:16.929Z,13.10
2023-10-20T02:17:45.552Z,13.05
2023-10-20T02:20:17.144Z,13.00
2023-10-20T02:22:45.751Z,12.98
2023-10-20T02:25:14.746Z,12.97
2023-10-20T02:27:44.042Z,12.95
2023-10-20T02:30:14.838Z,12.91
2023-10-20T02:32:44.362Z,12.90
2023-10-20T02:35:13.972Z,12.91
2023-10-20T02:37:42.699Z,12.89
2023-10-20T02:40:12.142Z,12.88
2023-10-20T02:42:40.759Z,12.87
2023-10-20T02:45:12.523Z,12.81
2023-10-20T02:47:41.499Z,12.77
2023-10-20T02:50:10.794Z,12.73
2023-10-20T02:52:39.422Z,12.70
2023-10-20T02:55:08.634Z,12.67
2023-10-20T02:57:38.304Z,12.63
2023-10-20T03:00:19.495Z,12.58
2023-10-20T03:02:50.187Z,12.55
2023-10-20T03:05:20.679Z,12.52
2023-10-20T03:07:49.337Z,12.48
2023-10-20T03:10:18.421Z,12.45
2023-10-20T03:12:47.103Z,12.42
2023-10-20T03:15:16.809Z,12.40
2023-10-20T03:17:45.277Z,12.44
2023-10-20T03:20:18.969Z,12.45
2023-10-20T03:22:49.422Z,12.41
2023-10-20T03:25:19.443Z,12.44
2023-10-20T03:27:48.943Z,12.43
2023-10-20T03:30:17.517Z,12.43
2023-10-20T03:32:51.890Z,12.43
2023-10-20T03:35:20.922Z,12.42
2023-10-20T03:37:58.429Z,12.41
2023-10-20T03:40:37.865Z,12.38
2023-10-20T03:43:08.087Z,12.36
2023-10-20T03:45:44.299Z,12.35
2023-10-20T03:48:13.072Z,12.35
2023-10-20T03:50:48.165Z,12.40
2023-10-20T03:53:22.433Z,12.37
2023-10-20T03:56:08.340Z,12.30
2023-10-20T03:58:37.567Z,12.26
2023-10-20T04:01:08.207Z,12.19
2023-10-20T04:03:36.946Z,12.13
2023-10-20T04:06:12.977Z,12.07
2023-10-20T04:08:42.845Z,12.00
2023-10-20T04:11:11.359Z,11.97
2023-10-20T04:13:40.838Z,11.93
2023-10-20T04:16:18.739Z,11.96
2023-10-20T04:18:48.552Z,11.92
2023-10-20T04:21:17.023Z,11.89
2023-10-20T04:23:45.758Z,11.86
2023-10-20T04:26:24.413Z,11.82
2023-10-20T04:29:09.660Z,11.79
2023-10-20T04:31:57.242Z,11.75
2023-10-20T04:34:44.756Z,11.76
2023-10-20T04:37:32.073Z,11.81
2023-10-20T04:40:19.136Z,11.85
2023-10-20T04:43:07.028Z,11.93
2023-10-20T04:45:35.508Z,11.97
2023-10-20T04:48:22.139Z,11.98
2023-10-20T04:51:12.099Z,11.98
2023-10-20T04:54:06.790Z,11.97
2023-10-20T04:56:40.461Z,12.02
2023-10-20T04:59:12.359Z,12.02
2023-10-20T05:01:51.165Z,12.04
2023-10-20T05:04:25.796Z,12.08
2023-10-20T05:07:06.828Z,12.10
2023-10-20T05:09:42.413Z,12.14
2023-10-20T05:12:10.994Z,12.18
2023-10-20T05:14:39.633Z,12.21
2023-10-20T05:17:14.542Z,12.31
2023-10-20T05:19:43.398Z,12.40
2023-10-20T05:22:11.881Z,12.46
2023-10-20T05:24:40.574Z,12.56
2023-10-20T05:27:09.148Z,12.65
2023-10-20T05:29:39.676Z,12.78
2023-10-20T05:32:08.102Z,13.37
2023-10-20T05:34:36.586Z,14.20
2023-10-20T05:37:05.435Z,14.85
2023-10-20T05:39:34.118Z,15.59
2023-10-20T05:42:05.979Z,16.36
2023-10-20T05:44:39.430Z,16.96
2023-10-20T05:47:08.009Z,17.45
2023-10-20T05:49:36.851Z,17.55
2023-10-20T05:52:05.438Z,17.78
2023-10-20T05:54:34.219Z,17.51
2023-10-20T05:57:02.711Z,16.70
2023-10-20T05:59:31.465Z,16.18
2023-10-20T06:01:59.897Z,15.87
2023-10-20T06:04:29.009Z,15.58
2023-10-20T06:06:57.963Z,15.38
2023-10-20T06:09:26.710Z,15.26
2023-10-20T06:11:55.643Z,15.41
2023-10-20T06:14:25.379Z,16.00
2023-10-20T06:16:54.579Z,16.84
2023-10-20T06:19:23.342Z,17.95
2023-10-20T06:21:52.336Z,19.12
2023-10-20T06:24:20.811Z,20.02
2023-10-20T06:26:49.459Z,20.53
2023-10-20T06:29:24.248Z,20.85
2023-10-20T06:32:11.262Z,20.92
2023-10-20T06:34:43.430Z,20.39
2023-10-20T06:37:15.658Z,19.59
2023-10-20T06:39:44.344Z,19.42
2023-10-20T06:42:13.850Z,20.12
2023-10-20T06:44:42.673Z,20.57
2023-10-20T06:47:12.649Z,21.33
2023-10-20T06:49:44.504Z,22.15
2023-10-20T06:52:18.648Z,22.80
2023-10-20T06:55:08.801Z,23.35
2023-10-20T06:57:36.325Z,23.90
2023-10-20T07:00:08.162Z,24.32
2023-10-20T07:02:37.224Z,24.71
2023-10-20T07:05:06.828Z,25.08
2023-10-20T07:07:35.419Z,25.33
2023-10-20T07:10:04.717Z,25.85
2023-10-20T07:12:34.014Z,26.25
2023-10-20T07:15:02.703Z,26.34
2023-10-20T07:17:31.268Z,26.33
2023-10-20T07:19:59.864Z,26.52
2023-10-20T07:22:31.115Z,26.23
2023-10-20T07:24:59.897Z,25.91
2023-10-20T07:27:28.577Z,26.29
2023-10-20T07:29:58.765Z,26.45
2023-10-20T07:32:27.677Z,26.60
2023-10-20T07:34:56.184Z,26.93
2023-10-20T07:37:24.556Z,27.43
2023-10-20T07:39:53.750Z,28.02
2023-10-20T07:42:22.336Z,28.07
2023-10-20T07:44:51.798Z,28.15
2023-10-20T07:47:20.360Z,28.55
2023-10-20T07:49:49.509Z,28.85
2023-10-20T07:52:18.916Z,28.90
2023-10-20T07:54:47.394Z,28.87
2023-10-20T07:57:16.844Z,28.83
2023-10-20T07:59:47.744Z,28.96
2023-10-20T08:02:16.471Z,29.21
2023-10-20T08:04:45.348Z,29.57
2023-10-20T08:07:14.772Z,29.30
2023-10-20T08:09:43.709Z,28.90
2023-10-20T08:12:12.303Z,28.40
2023-10-20T08:14:41.902Z,28.29
2023-10-20T08:17:11.841Z,28.27
2023-10-20T08:19:45.929Z,28.26
2023-10-20T08:22:14.510Z,28.03
2023-10-20T08:24:43.193Z,27.91
2023-10-20T08:27:11.773Z,28.46
2023-10-20T08:29:41.277Z,29.12
2023-10-20T08:32:10.195Z,28.81
2023-10-20T08:34:39.366Z,28.26
2023-10-20T08:37:09.070Z,28.14
2023-10-20T08:39:37.654Z,28.10
2023-10-20T08:42:18.536Z,27.86
2023-10-20T08:44:47.908Z,27.77
2023-10-20T08:47:18.097Z,27.46
2023-10-20T08:49:47.546Z,27.76
2023-10-20T08:52:18.468Z,28.59
2023-10-20T08:54:49.433Z,28.97
2023-10-20T08:57:17.840Z,28.69
2023-10-20T08:59:53.185Z,28.72
2023-10-20T09:02:22.795Z,29.29
2023-10-20T09:04:52.674Z,29.36
2023-10-20T09:07:24.020Z,29.44
2023-10-20T09:09:54.547Z,29.90
2023-10-20T09:12:26.092Z,29.83
2023-10-20T09:14:57.849Z,30.12
2023-10-20T09:17:26.703Z,30.64
2023-10-20T09:20:06.720Z,31.08
2023-10-20T09:22:35.188Z,31.29
2023-10-20T09:25:07.525Z,31.70
2023-10-20T09:27:36.036Z,31.36
2023-10-20T09:30:12.354Z,31.55
2023-10-20T09:32:41.181Z,31.39
2023-10-20T09:35:10.616Z,31.60
2023-10-20T09:37:40.712Z,32.11
2023-10-20T09:40:10.517Z,31.88
2023-10-20T09:43:26.456Z,31.54
2023-10-20T09:46:05.444Z,31.31
2023-10-20T09:48:35.585Z,30.16
2023-10-20T09:51:04.654Z,28.96
2023-10-20T09:53:33.163Z,27.97
2023-10-20T09:56:02.025Z,26.81
2023-10-20T09:58:35.513Z,26.12
2023-10-20T10:01:05.378Z,25.39
2023-10-20T10:03:44.929Z,24.85
2023-10-20T10:06:17.850Z,24.34
2023-10-20T10:08:49.178Z,24.08
2023-10-20T10:11:33.204Z,23.74
2023-10-20T10:14:03.880Z,23.66
2023-10-20T10:16:33.197Z,23.71
2023-10-20T10:19:11.374Z,23.86
2023-10-20T10:21:41.819Z,24.11
2023-10-20T10:24:11.215Z,24.39
2023-10-20T10:26:57.806Z,24.69
2023-10-20T10:29:53.016Z,25.05
2023-10-20T10:32:23.997Z,25.13
2023-10-20T10:34:57.503Z,25.20
2023-10-20T10:37:36.327Z,25.44
2023-10-20T10:40:13.755Z,25.45
2023-10-20T10:42:44.707Z,25.68
2023-10-20T10:45:28.899Z,26.06
2023-10-20T10:48:07.316Z,26.34
2023-10-20T10:50:40.846Z,26.18
2023-10-20T10:53:11.385Z,26.03
2023-10-20T10:55:41.120Z,25.71
2023-10-20T10:58:11.587Z,25.57
2023-10-20T11:00:40.936Z,25.66
2023-10-20T11:03:10.819Z,26.00
2023-10-20T11:05:40.680Z,26.15
2023-10-20T11:08:14.056Z,25.88
2023-10-20T11:10:47.519Z,25.89
2023-10-20T11:13:21.466Z,26.11
2023-10-20T11:15:51.551Z,26.46
2023-10-20T11:18:22.157Z,26.64
2023-10-20T11:20:51.480Z,27.16
2023-10-20T11:23:35.550Z,27.93
2023-10-20T11:26:16.245Z,28.51
2023-10-20T11:28:47.690Z,28.96
2023-10-20T11:31:16.413Z,29.43
2023-10-20T11:33:45.099Z,29.67
2023-10-20T11:36:13.852Z,29.81
2023-10-20T11:38:42.456Z,30.02
2023-10-20T11:41:11.880Z,30.44
2023-10-20T11:43:41.642Z,30.54
2023-10-20T11:46:12.973Z,30.54
2023-10-20T11:48:41.749Z,30.64
2023-10-20T11:51:12.158Z,30.66
2023-10-20T11:53:42.352Z,30.15
2023-10-20T11:56:12.240Z,29.51
2023-10-20T11:58:40.819Z,28.83
2023-10-20T12:01:09.205Z,28.09
2023-10-20T12:03:38.336Z,27.45
2023-10-20T12:06:08.422Z,26.93
2023-10-20T12:08:36.946Z,26.38
2023-10-20T12:11:06.005Z,25.94
2023-10-20T12:13:38.179Z,25.40
2023-10-20T12:16:08.243Z,25.13
2023-10-20T12:18:36.839Z,24.74
2023-10-20T12:21:05.556Z,24.47
2023-10-20T12:23:34.055Z,24.32
2023-10-20T12:26:04.659Z,24.15
2023-10-20T12:28:33.555Z,24.07
2023-10-20T12:31:02.515Z,23.99
2023-10-20T12:33:31.382Z,23.91
2023-10-20T12:36:00.399Z,23.83
2023-10-20T12:38:29.121Z,23.78
2023-10-20T12:40:57.698Z,23.68
2023-10-20T12:43:27.518Z,23.62
2023-10-20T12:45:56.089Z,23.50
2023-10-20T12:48:26.268Z,23.38
2023-10-20T12:50:55.043Z,23.28
2023-10-20T12:53:23.717Z,23.24
2023-10-20T12:55:54.626Z,23.18
2023-10-20T12:58:23.068Z,23.14
2023-10-20T13:00:51.585Z,23.15
2023-10-20T13:03:20.066Z,23.18
2023-10-20T13:05:49.419Z,23.18
2023-10-20T13:08:18.048Z,23.16
2023-10-20T13:10:48.986Z,23.16
2023-10-20T13:13:18.697Z,23.16
2023-10-20T13:15:47.379Z,23.11
2023-10-20T13:18:17.175Z,23.07
2023-10-20T13:20:48.859Z,23.02
2023-10-20T13:23:17.836Z,22.95
2023-10-20T13:25:46.327Z,22.83
2023-10-20T13:28:15.238Z,22.78
2023-10-20T13:33:24.247Z,22.62
2023-10-20T13:35:52.753Z,22.53
2023-10-20T13:41:00.868Z,22.46
2023-10-20T13:43:30.062Z,22.38
2023-10-20T13:45:58.905Z,22.34
2023-10-20T13:48:27.686Z,22.31
2023-10-20T13:50:56.449Z,22.26
2023-10-20T13:53:26.226Z,22.24
2023-10-20T13:55:55.222Z,22.21
2023-10-20T13:58:24.337Z,22.17
2023-10-20T14:00:52.878Z,22.13
2023-10-20T14:03:22.002Z,22.07
2023-10-20T14:05:56.356Z,22.01
2023-10-20T14:08:25.095Z,21.97
2023-10-20T14:10:55.751Z,21.93
2023-10-20T14:13:24.134Z,21.86
2023-10-20T14:15:52.736Z,21.81
2023-10-20T14:18:21.573Z,21.74
2023-10-20T14:20:50.231Z,21.67
2023-10-20T14:23:19.373Z,21.59
2023-10-20T14:25:47.960Z,21.54
2023-10-20T14:28:16.640Z,21.48
2023-10-20T14:30:45.326Z,21.42
2023-10-20T14:33:14.100Z,21.36
2023-10-20T14:35:43.012Z,21.31
2023-10-20T14:38:11.485Z,21.24
2023-10-20T14:40:40.055Z,21.19
2023-10-20T14:43:09.376Z,21.13
2023-10-20T14:45:38.451Z,21.10
2023-10-20T14:48:07.344Z,21.02
2023-10-20T14:50:38.842Z,20.96
2023-10-20T14:53:07.575Z,20.87
2023-10-20T14:55:37.593Z,20.80
2023-10-20T14:58:06.290Z,20.72
2023-10-20T15:00:37.532Z,20.66
2023-10-20T15:03:06.576Z,20.62
2023-10-20T15:05:39.088Z,20.58
2023-10-20T15:08:08.672Z,20.52
2023-10-20T15:10:37.598Z,20.47
2023-10-20T15:13:06.488Z,20.40
2023-10-20T15:15:36.050Z,20.35
2023-10-20T15:18:05.390Z,20.30
2023-10-20T15:20:34.137Z,20.24
2023-10-20T15:23:16.499Z,20.18
2023-10-20T15:25:47.016Z,20.12
2023-10-20T15:28:15.502Z,20.06
2023-10-20T15:30:44.080Z,20.01
2023-10-20T15:33:13.340Z,19.97
2023-10-20T15:35:44.081Z,19.95
2023-10-20T15:38:12.910Z,19.93
2023-10-20T15:40:42.109Z,19.92
2023-10-20T15:43:11.714Z,19.92
2023-10-20T15:45:40.199Z,19.93
2023-10-20T15:48:11.062Z,19.93
2023-10-20T15:50:44.346Z,19.93
2023-10-20T15:53:13.003Z,19.93
2023-10-20T15:55:43.218Z,19.92
2023-10-20T15:58:11.614Z,19.93
2023-10-20T16:00:42.353Z,19.98
2023-10-20T16:03:10.872Z,20.05
2023-10-20T16:05:39.747Z,20.11
2023-10-20T16:08:08.397Z,20.14
2023-10-20T16:10:36.972Z,20.15
2023-10-20T16:13:05.567Z,20.14
2023-10-20T16:15:33.939Z,20.11
2023-10-20T16:18:02.906Z,20.05
2023-10-20T16:20:31.764Z,19.97
2023-10-20T16:23:00.403Z,19.89
2023-10-20T16:25:28.993Z,19.83
2023-10-20T16:27:59.574Z,19.78
2023-10-20T16:30:28.818Z,19.75
2023-10-20T16:32:59.863Z,19.72
2023-10-20T16:35:29.197Z,19.72
2023-10-20T16:37:57.839Z,19.74
2023-10-20T16:40:26.322Z,19.76
2023-10-20T16:42:54.701Z,19.79
2023-10-20T16:45:23.070Z,19.85
2023-10-20T16:47:52.881Z,19.89
2023-10-20T16:50:22.287Z,19.91
2023-10-20T16:52:50.767Z,19.90
2023-10-20T16:55:19.236Z,19.89
2023-10-20T16:57:50.087Z,19.85
2023-10-20T17:00:18.967Z,19.82
2023-10-20T17:02:48.716Z,19.79
2023-10-20T17:05:17.590Z,19.77
2023-10-20T17:07:48.808Z,19.77
2023-10-20T17:10:18.120Z,19.78
2023-10-20T17:12:49.880Z,19.78
2023-10-20T17:15:19.317Z,19.80
2023-10-20T17:17:47.710Z,19.83
2023-10-20T17:20:16.442Z,19.85
2023-10-20T17:22:45.438Z,19.86
2023-10-20T17:25:16.375Z,19.85
2023-10-20T17:27:49.799Z,19.82
2023-10-20T17:30:19.614Z,19.79
2023-10-20T17:32:53.343Z,19.79
2023-10-20T17:35:22.976Z,19.78
2023-10-20T17:37:51.472Z,19.78
2023-10-20T17:40:20.156Z,19.78
2023-10-20T17:42:48.643Z,19.80
2023-10-20T17:45:17.525Z,19.84
2023-10-20T17:47:47.724Z,19.86
2023-10-20T17:50:18.923Z,19.88
2023-10-20T17:52:50.857Z,19.89
2023-10-20T17:55:23.127Z,19.86
2023-10-20T17:57:51.720Z,19.84
2023-10-20T18:00:22.772Z,19.81
2023-10-20T18:02:52.606Z,19.78
2023-10-20T18:05:21.505Z,19.76
2023-10-20T18:07:51.164Z,19.75
2023-10-20T18:10:20.243Z,19.73
2023-10-20T18:12:51.095Z,19.71
2023-10-20T18:15:22.034Z,19.69
2023-10-20T18:17:50.578Z,19.69
2023-10-20T18:20:20.933Z,19.68
2023-10-20T18:22:49.844Z,19.64
2023-10-20T18:25:21.282Z,19.65
2023-10-20T18:27:49.558Z,19.65
2023-10-20T18:30:21.211Z,19.63
2023-10-20T18:32:56.568Z,19.62
2023-10-20T18:35:30.876Z,19.61
2023-10-20T18:38:03.033Z,19.62
2023-10-20T18:40:36.124Z,19.61
2023-10-20T18:43:05.522Z,19.59
2023-10-20T18:45:34.246Z,19.56
2023-10-20T18:48:03.086Z,19.51
2023-10-20T18:50:31.952Z,19.46
2023-10-20T18:53:00.572Z,19.45
2023-10-20T18:55:30.176Z,19.43
2023-10-20T18:58:01.019Z,19.40
2023-10-20T19:00:33.796Z,19.38
2023-10-20T19:03:06.135Z,19.34
2023-10-20T19:05:34.786Z,19.30
2023-10-20T19:08:05.834Z,19.25
2023-10-20T19:10:34.278Z,19.19
2023-10-20T19:13:03.271Z,19.14
2023-10-20T19:15:35.044Z,19.08
2023-10-20T19:18:05.612Z,19.02
2023-10-20T19:20:34.142Z,18.99
2023-10-20T19:23:08.755Z,18.97
2023-10-20T19:25:40.442Z,18.94
2023-10-20T19:28:09.507Z,18.93
2023-10-20T19:30:38.412Z,18.92
2023-10-20T19:33:06.656Z,18.91
2023-10-20T19:35:35.181Z,18.91
2023-10-20T19:38:04.757Z,18.93
2023-10-20T19:40:36.011Z,18.96
2023-10-20T19:43:05.099Z,19.00
2023-10-20T19:45:33.492Z,19.04
2023-10-20T19:48:01.779Z,19.08
2023-10-20T19:50:30.377Z,19.12
2023-10-20T19:52:58.921Z,19.14
2023-10-20T19:55:27.503Z,19.16
2023-10-20T19:57:56.095Z,19.19
2023-10-20T20:00:26.553Z,19.20
2023-10-20T20:02:55.222Z,19.18
2023-10-20T20:05:26.161Z,19.14
2023-10-20T20:07:55.741Z,19.11
2023-10-20T20:10:24.943Z,19.08
2023-10-20T20:12:53.492Z,19.01
2023-10-20T20:15:24.352Z,18.94
2023-10-20T20:17:53.724Z,18.86
2023-10-20T20:20:22.554Z,18.77
2023-10-20T20:22:51.168Z,18.72
2023-10-20T20:25:19.941Z,18.66
2023-10-20T20:27:48.608Z,18.58
2023-10-20T20:30:17.780Z,18.51
2023-10-20T20:32:48.610Z,18.44
2023-10-20T20:35:17.474Z,18.36
2023-10-20T20:37:47.965Z,18.30
2023-10-20T20:40:16.646Z,18.25
2023-10-20T20:42:45.029Z,18.21
2023-10-20T20:45:13.726Z,18.16
2023-10-20T20:47:42.180Z,18.12
2023-10-20T20:50:18.856Z,18.09
2023-10-20T20:52:55.423Z,18.06
2023-10-20T20:55:24.015Z,18.04
2023-10-20T20:57:52.804Z,18.00
2023-10-20T21:00:21.825Z,17.97
2023-10-20T21:02:50.386Z,17.95
2023-10-20T21:05:19.263Z,17.95
2023-10-20T21:07:47.646Z,17.96
2023-10-20T21:10:16.537Z,17.95
2023-10-20T21:12:45.013Z,17.96
2023-10-20T21:15:14.251Z,17.95
2023-10-20T21:17:42.883Z,17.90
2023-10-20T21:20:12.193Z,17.82
2023-10-20T21:22:41.278Z,17.71
2023-10-20T21:25:10.669Z,17.62
2023-10-20T21:27:39.264Z,17.53
2023-10-20T21:30:09.679Z,17.44
2023-10-20T21:32:38.351Z,17.35
2023-10-20T21:35:07.455Z,17.36
2023-10-20T21:37:35.834Z,17.36
2023-10-20T21:40:05.752Z,17.36
2023-10-20T21:42:36.479Z,17.46
2023-10-20T21:45:05.614Z,17.60
2023-10-20T21:47:34.232Z,17.75
2023-10-20T21:50:02.863Z,17.89
2023-10-20T21:52:32.712Z,17.97
2023-10-20T21:55:01.228Z,18.04
2023-10-20T21:57:29.820Z,18.10
2023-10-20T21:59:58.325Z,18.13
2023-10-20T22:02:28.138Z,18.14
2023-10-20T22:04:56.478Z,18.15
2023-10-20T22:07:24.878Z,18.18
2023-10-20T22:09:54.464Z,18.21
2023-10-20T22:12:23.366Z,18.25
2023-10-20T22:14:52.282Z,18.32
2023-10-20T22:17:20.630Z,18.35
2023-10-20T22:19:49.526Z,18.38
2023-10-20T22:22:18.208Z,18.39
2023-10-20T22:24:46.897Z,18.42
2023-10-20T22:27:17.599Z,18.43
2023-10-20T22:29:46.528Z,18.45
2023-10-20T22:32:15.316Z,18.45
2023-10-20T22:34:43.811Z,18.44
2023-10-20T22:37:12.776Z,18.43
2023-10-20T22:39:41.151Z,18.43
2023-10-20T22:42:09.691Z,18.44
2023-10-20T22:44:38.555Z,18.46
2023-10-20T22:47:06.937Z,18.45
2023-10-20T22:49:35.515Z,18.42
2023-10-20T22:52:04.899Z,18.41
2023-10-20T22:54:33.472Z,18.39
2023-10-20T22:57:01.975Z,18.37
2023-10-20T22:59:30.428Z,18.38
2023-10-20T23:01:59.026Z,18.39
2023-10-20T23:04:27.825Z,18.41
2023-10-20T23:06:56.391Z,18.39
2023-10-20T23:09:24.987Z,18.39
2023-10-20T23:11:53.366Z,18.38
2023-10-20T23:14:21.837Z,18.35
2023-10-20T23:16:50.835Z,18.33
2023-10-20T23:19:19.216Z,18.30
2023-10-20T23:21:47.594Z,18.26
2023-10-20T23:24:16.123Z,18.23
2023-10-20T23:26:45.202Z,18.21
2023-10-20T23:29:14.366Z,18.19
2023-10-20T23:31:42.847Z,18.20
2023-10-20T23:34:11.634Z,18.17
2023-10-20T23:36:42.069Z,18.09
2023-10-20T23:39:11.001Z,18.05
2023-10-20T23:41:39.460Z,18.02
2023-10-20T23:44:07.926Z,17.96
2023-10-20T23:46:36.398Z,17.93
2023-10-20T23:49:04.982Z,17.90
2023-10-20T23:51:33.567Z,17.86
2023-10-20T23:54:01.966Z,17.86
2023-10-20T23:56:30.645Z,17.80
2023-10-20T23:58:59.418Z,17.75
